Time;durP1;ratioP1;P1;durP2;ratioP2;P2;SDS_P1;SDS_P2;PMS_P1;PMS_P2;Temp;Humidity;BMP_temperature;BMP_pressure;BME280_temperature;BME280_humidity;BME280_pressure;Samples;Min_cycle;Max_cycle;Signal;HPM_P1;HPM_P2
2023/10/21 00:02:04;;;;;;;2.90;2.50;;;12.70;99.90;;;;;;5044699;28;20433;-76
2023/10/21 00:04:31;;;;;;;4.77;3.17;;;12.70;99.90;;;;;;5058352;28;20448;-76
2023/10/21 00:06:59;;;;;;;3.08;2.60;;;12.70;99.90;;;;;;5049094;28;20483;-75
2023/10/21 00:09:26;;;;;;;3.90;3.00;;;12.70;99.90;;;;;;5057142;28;20440;-76
2023/10/21 00:11:53;;;;;;;3.90;2.75;;;12.70;99.90;;;;;;5057921;28;20439;-75
2023/10/21 00:14:19;;;;;;;4.25;2.55;;;12.70;99.90;;;;;;5054419;28;20413;-76
2023/10/21 00:16:48;;;;;;;2.70;2.50;;;12.70;99.90;;;;;;5056215;28;20431;-77
2023/10/21 00:19:15;;;;;;;4.20;2.70;;;12.70;99.90;;;;;;5055813;28;21039;-76
2023/10/21 00:21:41;;;;;;;3.38;2.50;;;12.70;99.90;;;;;;5055030;28;20425;-76
2023/10/21 00:24:10;;;;;;;3.70;2.90;;;12.70;99.90;;;;;;5072607;28;20431;-74
2023/10/21 00:26:44;;;;;;;3.15;2.85;;;12.70;99.90;;;;;;5071101;28;20495;-76
2023/10/21 00:29:12;;;;;;;4.00;3.20;;;12.70;99.90;;;;;;5064503;28;20413;-75
2023/10/21 00:31:38;;;;;;;3.93;2.70;;;12.70;99.90;;;;;;5047255;28;20421;-77
2023/10/21 00:34:05;;;;;;;3.30;2.90;;;12.70;99.90;;;;;;5058613;28;20406;-77
2023/10/21 00:36:32;;;;;;;3.33;3.00;;;12.70;99.90;;;;;;5058474;28;20421;-77
2023/10/21 00:38:58;;;;;;;4.23;2.90;;;12.70;99.90;;;;;;5049447;28;20512;-76
2023/10/21 00:41:27;;;;;;;3.30;3.00;;;12.70;99.90;;;;;;5050535;28;20424;-76
2023/10/21 00:43:54;;;;;;;3.88;2.75;;;12.70;99.90;;;;;;5047049;28;20468;-75
2023/10/21 00:46:22;;;;;;;4.15;3.10;;;12.70;99.90;;;;;;5056442;28;20436;-75
2023/10/21 00:48:50;;;;;;;4.80;3.40;;;12.70;99.90;;;;;;5047901;28;20433;-76
2023/10/21 00:51:17;;;;;;;4.32;3.40;;;12.60;99.90;;;;;;5053591;28;20919;-76
2023/10/21 00:53:44;;;;;;;4.70;3.10;;;12.70;99.90;;;;;;5050480;28;20444;-76
2023/10/21 00:56:11;;;;;;;4.50;3.10;;;12.70;99.90;;;;;;5059937;28;20443;-76
2023/10/21 00:58:40;;;;;;;3.97;3.35;;;12.70;99.90;;;;;;5058530;28;20789;-77
2023/10/21 01:01:09;;;;;;;4.10;3.50;;;12.60;99.90;;;;;;5048778;28;20627;-75
2023/10/21 01:03:36;;;;;;;3.70;3.08;;;12.70;99.90;;;;;;5063160;28;20451;-76
2023/10/21 01:06:04;;;;;;;3.53;3.13;;;12.70;99.90;;;;;;5062209;28;20418;-74
2023/10/21 01:08:30;;;;;;;3.80;3.20;;;12.70;99.90;;;;;;5051320;28;20436;-75
2023/10/21 01:10:58;;;;;;;5.03;3.58;;;12.70;99.90;;;;;;5050873;28;21195;-76
2023/10/21 01:13:24;;;;;;;4.70;3.50;;;12.70;99.90;;;;;;5046404;28;20409;-75
2023/10/21 01:15:52;;;;;;;5.40;3.70;;;12.70;99.90;;;;;;5051996;28;20433;-75
2023/10/21 01:18:19;;;;;;;4.88;3.60;;;12.70;99.90;;;;;;5055923;28;20438;-75
2023/10/21 01:20:46;;;;;;;7.95;4.22;;;12.70;99.90;;;;;;5051409;28;20432;-76
2023/10/21 01:23:15;;;;;;;4.30;3.80;;;12.70;99.90;;;;;;5060362;28;20428;-74
2023/10/21 01:25:43;;;;;;;6.47;4.45;;;12.70;99.90;;;;;;5051144;28;20433;-75
2023/10/21 01:28:10;;;;;;;6.78;4.15;;;12.70;99.90;;;;;;5057705;28;20491;-76
2023/10/21 01:30:37;;;;;;;4.18;3.83;;;12.70;99.90;;;;;;5058914;28;20429;-76
2023/10/21 01:33:04;;;;;;;6.20;5.40;;;12.70;99.90;;;;;;5051788;28;20412;-75
2023/10/21 01:35:31;;;;;;;6.38;4.78;;;12.70;99.90;;;;;;5060113;28;20743;-75
2023/10/21 01:37:57;;;;;;;6.80;4.70;;;12.70;99.90;;;;;;5061009;28;20818;-77
2023/10/21 01:40:27;;;;;;;6.88;4.70;;;12.70;99.90;;;;;;5060604;28;20433;-75
2023/10/21 01:42:54;;;;;;;6.10;3.87;;;12.70;99.90;;;;;;5052159;28;20464;-76
2023/10/21 01:45:21;;;;;;;4.57;3.60;;;12.70;99.90;;;;;;5057229;28;20432;-75
2023/10/21 01:47:47;;;;;;;4.38;3.10;;;12.70;99.90;;;;;;5062849;28;20425;-77
2023/10/21 01:50:14;;;;;;;4.18;3.78;;;12.70;99.90;;;;;;5051513;28;20448;-75
2023/10/21 01:52:41;;;;;;;4.10;3.60;;;12.70;99.90;;;;;;5057393;28;20416;-75
2023/10/21 01:55:09;;;;;;;4.68;3.42;;;12.70;99.90;;;;;;5067813;28;20428;-76
2023/10/21 01:57:38;;;;;;;5.70;3.60;;;12.70;99.90;;;;;;5061030;28;20487;-75
2023/10/21 02:00:08;;;;;;;5.70;3.55;;;12.70;99.90;;;;;;5060195;28;20440;-74
2023/10/21 02:02:35;;;;;;;3.50;3.10;;;12.80;99.90;;;;;;5055406;28;20506;-73
2023/10/21 02:05:04;;;;;;;3.78;3.47;;;12.80;99.90;;;;;;5056501;28;20410;-75
2023/10/21 02:07:31;;;;;;;4.22;3.83;;;12.70;99.90;;;;;;5063776;28;20423;-75
2023/10/21 02:09:57;;;;;;;4.75;3.63;;;12.70;99.90;;;;;;5048532;28;20440;-74
2023/10/21 02:12:24;;;;;;;4.78;4.10;;;12.70;99.90;;;;;;5049047;28;20429;-75
2023/10/21 02:14:52;;;;;;;4.70;4.20;;;12.70;99.90;;;;;;5051287;28;20428;-74
2023/10/21 02:17:19;;;;;;;5.68;4.30;;;12.70;99.90;;;;;;5059778;28;20443;-75
2023/10/21 02:19:46;;;;;;;4.88;3.92;;;12.70;99.90;;;;;;5052849;28;20413;-75
2023/10/21 02:22:12;;;;;;;6.35;5.10;;;12.70;99.90;;;;;;5063742;28;20793;-75
2023/10/21 02:24:39;;;;;;;4.93;4.53;;;12.70;99.90;;;;;;5044766;28;20512;-77
2023/10/21 02:27:06;;;;;;;5.22;4.82;;;12.70;99.90;;;;;;5057342;28;20938;-75
2023/10/21 02:29:33;;;;;;;5.75;5.20;;;12.70;99.90;;;;;;5042779;28;20417;-75
2023/10/21 02:32:01;;;;;;;5.10;4.60;;;12.70;99.90;;;;;;5056729;28;20423;-73
2023/10/21 02:34:28;;;;;;;5.60;4.70;;;12.70;99.90;;;;;;5063363;28;20424;-75
2023/10/21 02:36:55;;;;;;;5.60;5.10;;;12.70;99.90;;;;;;5054530;28;20429;-75
2023/10/21 02:39:21;;;;;;;6.00;5.22;;;12.70;99.90;;;;;;5061770;28;20512;-76
2023/10/21 02:41:48;;;;;;;6.38;5.50;;;12.70;99.90;;;;;;5050167;28;20444;-75
2023/10/21 02:44:15;;;;;;;5.68;5.00;;;12.70;99.90;;;;;;5053121;28;20437;-75
2023/10/21 02:46:42;;;;;;;6.60;5.90;;;12.70;99.90;;;;;;5052660;28;20444;-74
2023/10/21 02:49:10;;;;;;;7.20;6.40;;;12.70;99.90;;;;;;5061518;28;20489;-74
2023/10/21 02:51:36;;;;;;;6.82;6.22;;;12.70;99.90;;;;;;5058277;28;20433;-76
2023/10/21 02:54:04;;;;;;;7.10;6.38;;;12.70;99.90;;;;;;5057536;28;20432;-76
2023/10/21 02:56:31;;;;;;;6.32;5.72;;;12.70;99.90;;;;;;5054987;28;20444;-76
2023/10/21 02:58:57;;;;;;;6.70;6.00;;;12.70;99.90;;;;;;5050867;28;20781;-76
2023/10/21 03:01:25;;;;;;;6.80;6.10;;;12.70;99.90;;;;;;5051529;28;20536;-75
2023/10/21 03:03:52;;;;;;;5.75;5.20;;;12.70;99.90;;;;;;5062590;28;20423;-76
2023/10/21 03:06:22;;;;;;;6.63;5.30;;;12.70;99.90;;;;;;5053401;28;20405;-75
2023/10/21 03:08:48;;;;;;;5.22;4.50;;;12.70;99.90;;;;;;5055889;28;20445;-74
2023/10/21 03:11:15;;;;;;;5.10;4.60;;;12.70;99.90;;;;;;5053672;28;20539;-74
2023/10/21 03:13:43;;;;;;;5.00;4.30;;;12.70;99.90;;;;;;5049932;28;20429;-74
2023/10/21 03:16:11;;;;;;;6.28;4.80;;;12.70;99.90;;;;;;5047097;28;20425;-76
2023/10/21 03:18:40;;;;;;;4.78;4.25;;;12.70;99.90;;;;;;5054749;28;20514;-75
2023/10/21 03:21:07;;;;;;;4.18;3.78;;;12.70;99.90;;;;;;5058262;28;20835;-73
2023/10/21 03:23:36;;;;;;;3.90;3.50;;;12.70;99.90;;;;;;5049679;28;21072;-76
2023/10/21 03:26:04;;;;;;;3.50;3.20;;;12.70;99.90;;;;;;5057413;28;20914;-73
2023/10/21 03:28:31;;;;;;;3.83;3.20;;;12.70;99.90;;;;;;5056911;28;20919;-74
2023/10/21 03:30:59;;;;;;;3.63;3.30;;;12.80;99.90;;;;;;5044653;28;20915;-74
2023/10/21 03:33:26;;;;;;;4.30;3.50;;;12.80;99.90;;;;;;5064086;28;20781;-75
2023/10/21 03:35:53;;;;;;;6.40;3.58;;;12.80;99.90;;;;;;5056070;28;20525;-74
2023/10/21 03:38:21;;;;;;;3.78;3.38;;;12.80;99.90;;;;;;5057475;28;20413;-74
2023/10/21 03:40:56;;;;;;;4.40;4.00;;;12.80;99.90;;;;;;5049364;28;20425;-75
2023/10/21 03:43:23;;;;;;;6.78;6.07;;;12.80;99.90;;;;;;5057295;28;20431;-74
2023/10/21 03:45:50;;;;;;;7.03;6.33;;;12.80;99.90;;;;;;5050004;28;20526;-75
2023/10/21 03:48:16;;;;;;;6.30;5.70;;;12.80;99.90;;;;;;5061161;28;20411;-74
2023/10/21 03:50:43;;;;;;;6.10;5.50;;;12.80;99.90;;;;;;5057344;28;21225;-74
2023/10/21 03:53:11;;;;;;;6.93;5.55;;;12.80;99.90;;;;;;5051145;28;20823;-74
2023/10/21 03:55:38;;;;;;;4.93;4.43;;;12.80;99.90;;;;;;5054237;28;20536;-74
2023/10/21 03:58:06;;;;;;;5.00;4.60;;;12.80;99.90;;;;;;5055243;28;20799;-74
2023/10/21 04:00:34;;;;;;;5.00;4.50;;;12.80;99.90;;;;;;5055482;28;20516;-75
2023/10/21 04:03:01;;;;;;;5.30;4.30;;;12.90;99.90;;;;;;5056531;28;20502;-76
2023/10/21 04:05:28;;;;;;;6.43;4.65;;;12.80;99.90;;;;;;5042013;28;20463;-73
2023/10/21 04:07:55;;;;;;;5.30;4.30;;;12.90;99.90;;;;;;5052539;28;20860;-76
2023/10/21 04:10:22;;;;;;;4.15;3.75;;;12.90;99.90;;;;;;5052375;28;20435;-73
2023/10/21 04:12:49;;;;;;;5.03;4.20;;;12.90;99.90;;;;;;5056425;28;20440;-72
2023/10/21 04:15:19;;;;;;;4.30;3.90;;;12.90;99.90;;;;;;5055136;28;20847;-73
2023/10/21 04:17:47;;;;;;;3.80;3.40;;;12.90;99.90;;;;;;5050935;28;20444;-72
2023/10/21 04:20:16;;;;;;;3.85;3.45;;;12.90;99.90;;;;;;5063225;28;20418;-72
2023/10/21 04:22:43;;;;;;;3.80;3.40;;;12.90;99.90;;;;;;5057064;28;20421;-73
2023/10/21 04:25:09;;;;;;;3.60;3.30;;;12.90;99.90;;;;;;5062335;28;20419;-72
2023/10/21 04:27:36;;;;;;;3.95;2.83;;;12.90;99.90;;;;;;5051480;28;20440;-72
2023/10/21 04:30:04;;;;;;;3.20;2.90;;;12.90;99.90;;;;;;5049694;28;20447;-73
2023/10/21 04:32:32;;;;;;;3.35;3.05;;;12.90;99.90;;;;;;5049277;28;20421;-74
2023/10/21 04:34:59;;;;;;;3.53;3.08;;;12.90;99.90;;;;;;5047629;28;20983;-73
2023/10/21 04:37:26;;;;;;;4.70;3.00;;;12.90;99.90;;;;;;5047407;28;20436;-74
2023/10/21 04:39:53;;;;;;;3.40;3.10;;;12.90;99.90;;;;;;5048576;28;20420;-74
2023/10/21 04:42:20;;;;;;;3.90;3.30;;;12.90;99.90;;;;;;5048190;28;20424;-72
2023/10/21 04:44:47;;;;;;;2.80;2.60;;;12.80;99.90;;;;;;5049484;28;20433;-73
2023/10/21 04:47:15;;;;;;;3.30;3.00;;;12.90;99.90;;;;;;5047909;28;20419;-74
2023/10/21 04:49:43;;;;;;;4.53;3.70;;;12.80;99.90;;;;;;5048255;28;20436;-74
2023/10/21 04:52:11;;;;;;;5.50;4.27;;;12.70;99.90;;;;;;5047652;28;20477;-73
2023/10/21 04:54:38;;;;;;;4.90;4.40;;;12.70;99.90;;;;;;5045361;28;20708;-74
2023/10/21 04:57:05;;;;;;;5.60;5.10;;;12.70;99.90;;;;;;5048180;28;20947;-75
2023/10/21 04:59:31;;;;;;;5.20;4.70;;;12.70;99.90;;;;;;5056507;28;20444;-76
2023/10/21 05:01:58;;;;;;;4.78;4.20;;;12.60;99.90;;;;;;5045336;28;20784;-73
2023/10/21 05:04:25;;;;;;;4.45;4.05;;;12.60;99.90;;;;;;5044192;28;20456;-74
2023/10/21 05:06:53;;;;;;;4.70;4.10;;;12.60;99.90;;;;;;5051033;28;20448;-75
2023/10/21 05:09:20;;;;;;;4.60;4.20;;;12.50;99.90;;;;;;5040807;28;20711;-70
2023/10/21 05:11:46;;;;;;;5.00;4.60;;;12.50;99.90;;;;;;5047262;28;20410;-70
2023/10/21 05:14:13;;;;;;;5.40;4.90;;;12.50;99.90;;;;;;5048936;28;20792;-70
2023/10/21 05:16:40;;;;;;;5.22;4.82;;;12.50;99.90;;;;;;5044621;28;20440;-70
2023/10/21 05:19:07;;;;;;;5.72;4.90;;;12.50;99.90;;;;;;5045011;28;20427;-70
2023/10/21 05:21:34;;;;;;;6.45;5.00;;;12.50;99.90;;;;;;5047508;28;20763;-69
2023/10/21 05:24:02;;;;;;;5.30;4.80;;;12.50;99.90;;;;;;5046254;28;20512;-69
2023/10/21 05:26:29;;;;;;;4.90;4.40;;;12.60;99.90;;;;;;5045062;28;20420;-68
2023/10/21 05:28:57;;;;;;;5.00;4.50;;;12.60;99.90;;;;;;5045687;28;20495;-70
2023/10/21 05:31:24;;;;;;;4.28;3.88;;;12.60;99.90;;;;;;5046155;28;20435;-69
2023/10/21 05:33:51;;;;;;;4.43;3.90;;;12.60;99.90;;;;;;5055272;28;20420;-68
2023/10/21 05:36:18;;;;;;;3.97;3.63;;;12.60;99.90;;;;;;5047583;28;20418;-69
2023/10/21 05:38:45;;;;;;;7.25;3.25;;;12.60;99.90;;;;;;5046986;28;20808;-70
2023/10/21 05:41:13;;;;;;;3.40;3.10;;;12.60;99.90;;;;;;5046422;28;20442;-70
2023/10/21 05:43:39;;;;;;;3.10;2.80;;;12.60;99.90;;;;;;5054705;28;20769;-70
2023/10/21 05:46:06;;;;;;;3.22;2.78;;;12.60;99.90;;;;;;5046898;28;20605;-70
2023/10/21 05:48:33;;;;;;;3.10;2.80;;;12.70;99.90;;;;;;5056788;28;20444;-70
2023/10/21 05:51:01;;;;;;;3.55;2.80;;;12.60;99.90;;;;;;5050150;28;20483;-70
2023/10/21 05:53:28;;;;;;;4.03;3.25;;;12.70;99.90;;;;;;5051332;28;20413;-70
2023/10/21 05:55:56;;;;;;;5.63;3.00;;;12.70;99.90;;;;;;5051216;28;20441;-71
2023/10/21 05:58:24;;;;;;;3.17;2.70;;;12.70;99.90;;;;;;5051480;28;20422;-70
2023/10/21 06:00:51;;;;;;;3.23;2.50;;;12.70;99.90;;;;;;5050963;28;20498;-70
2023/10/21 06:03:18;;;;;;;2.60;2.37;;;12.70;99.90;;;;;;5050701;28;20469;-70
2023/10/21 06:05:45;;;;;;;2.67;2.30;;;12.70;99.90;;;;;;5051704;28;20700;-70
2023/10/21 06:08:12;;;;;;;3.60;2.10;;;12.70;99.90;;;;;;5062868;28;20422;-69
2023/10/21 06:10:39;;;;;;;2.17;1.98;;;12.80;99.90;;;;;;5054465;28;20437;-70
2023/10/21 06:13:06;;;;;;;2.80;2.30;;;12.80;99.90;;;;;;5051362;28;20520;-69
2023/10/21 06:15:34;;;;;;;2.80;1.77;;;12.80;99.90;;;;;;5051900;28;20409;-71
2023/10/21 06:18:03;;;;;;;3.90;2.50;;;12.80;99.90;;;;;;5048044;28;20436;-70
2023/10/21 06:20:29;;;;;;;2.05;1.85;;;12.80;99.90;;;;;;5051880;28;20417;-71
2023/10/21 06:22:56;;;;;;;1.92;1.83;;;12.80;99.90;;;;;;5050923;28;20768;-69
2023/10/21 06:25:24;;;;;;;3.47;2.15;;;12.80;99.90;;;;;;5052572;28;20429;-70
2023/10/21 06:27:50;;;;;;;3.47;1.98;;;12.80;99.90;;;;;;5049347;28;20486;-70
2023/10/21 06:30:17;;;;;;;2.70;1.90;;;12.80;99.90;;;;;;5047793;28;20433;-74
2023/10/21 06:32:46;;;;;;;3.58;2.05;;;12.90;99.90;;;;;;5048622;28;20448;-75
2023/10/21 06:35:13;;;;;;;2.30;1.80;;;12.90;99.90;;;;;;5050492;28;20535;-73
2023/10/21 06:37:40;;;;;;;2.55;1.80;;;12.80;99.90;;;;;;5049594;28;20437;-76
2023/10/21 06:40:08;;;;;;;4.30;2.20;;;12.90;99.90;;;;;;5049140;28;20484;-75
2023/10/21 06:42:34;;;;;;;2.70;1.80;;;12.90;99.90;;;;;;5083515;22;20439;-74
2023/10/21 06:45:02;;;;;;;2.70;1.80;;;12.80;99.90;;;;;;5059575;28;20437;-74
2023/10/21 06:47:29;;;;;;;1.88;1.60;;;12.80;99.90;;;;;;5065132;28;20427;-74
2023/10/21 06:49:57;;;;;;;2.40;1.60;;;12.90;99.90;;;;;;5061548;28;20438;-73
2023/10/21 06:52:24;;;;;;;2.35;1.30;;;12.90;99.90;;;;;;5046979;28;20750;-73
2023/10/21 06:54:51;;;;;;;3.22;1.40;;;12.90;99.90;;;;;;5044701;28;20765;-74
2023/10/21 06:57:21;;;;;;;2.55;1.45;;;13.00;99.90;;;;;;5045815;28;20471;-73
2023/10/21 06:59:48;;;;;;;2.70;1.10;;;13.00;99.90;;;;;;5041783;28;20457;-73
2023/10/21 07:02:15;;;;;;;1.80;1.00;;;13.10;99.90;;;;;;5039054;28;20436;-74
2023/10/21 07:04:41;;;;;;;2.97;1.10;;;13.10;99.90;;;;;;5045294;28;20689;-73
2023/10/21 07:07:10;;;;;;;2.30;1.00;;;13.00;99.90;;;;;;5046229;28;20503;-72
2023/10/21 07:09:37;;;;;;;1.60;0.90;;;13.10;99.90;;;;;;5046518;28;20439;-73
2023/10/21 07:12:05;;;;;;;1.80;0.90;;;13.00;99.90;;;;;;5052055;28;20495;-72
2023/10/21 07:14:32;;;;;;;1.60;1.00;;;13.00;99.90;;;;;;5043939;28;20425;-72
2023/10/21 07:17:00;;;;;;;1.30;0.80;;;13.00;99.90;;;;;;5045467;28;20923;-72
2023/10/21 07:19:27;;;;;;;1.75;1.20;;;13.00;99.90;;;;;;5047063;28;20487;-72
2023/10/21 07:21:53;;;;;;;1.45;0.70;;;13.00;99.90;;;;;;5047997;28;20428;-72
2023/10/21 07:24:21;;;;;;;1.70;0.80;;;13.00;99.90;;;;;;5043434;28;20517;-72
2023/10/21 07:26:48;;;;;;;1.63;0.70;;;13.00;99.90;;;;;;5045698;28;20437;-72
2023/10/21 07:29:15;;;;;;;2.00;0.70;;;13.00;99.90;;;;;;5045871;28;20472;-73
2023/10/21 07:31:43;;;;;;;1.00;0.70;;;13.00;99.90;;;;;;5043286;28;20489;-72
2023/10/21 07:34:11;;;;;;;0.80;0.40;;;13.10;99.90;;;;;;5045637;28;20568;-72
2023/10/21 07:36:38;;;;;;;1.55;0.60;;;13.30;99.90;;;;;;5042502;28;20479;-72
2023/10/21 07:39:05;;;;;;;0.90;0.50;;;13.30;99.90;;;;;;5043735;28;20451;-72
2023/10/21 07:41:33;;;;;;;1.43;0.50;;;13.40;99.90;;;;;;5044015;28;20433;-72
2023/10/21 07:44:00;;;;;;;0.82;0.40;;;13.40;99.90;;;;;;5051339;28;20429;-72
2023/10/21 07:46:28;;;;;;;1.88;0.50;;;13.50;99.90;;;;;;5041756;28;20435;-72
2023/10/21 07:48:56;;;;;;;1.10;0.60;;;13.60;99.90;;;;;;5045113;28;20791;-72
2023/10/21 07:51:23;;;;;;;1.30;0.60;;;13.70;99.90;;;;;;5045148;28;20427;-72
2023/10/21 07:53:50;;;;;;;1.52;1.10;;;13.80;99.90;;;;;;5050936;28;20424;-72
2023/10/21 07:56:17;;;;;;;0.80;0.40;;;14.00;99.90;;;;;;5050505;28;20425;-72
2023/10/21 07:58:45;;;;;;;1.10;0.50;;;14.10;99.90;;;;;;5044616;28;20420;-73
2023/10/21 08:01:11;;;;;;;1.15;0.40;;;14.20;99.90;;;;;;5050390;28;20429;-73
2023/10/21 08:03:38;;;;;;;1.10;0.50;;;14.20;99.90;;;;;;5045157;28;20424;-72
2023/10/21 08:06:07;;;;;;;1.50;0.50;;;14.30;99.90;;;;;;5047133;28;20507;-73
2023/10/21 08:08:34;;;;;;;1.40;0.50;;;14.40;99.90;;;;;;5042175;28;20416;-72
2023/10/21 08:11:01;;;;;;;1.20;0.40;;;14.40;99.90;;;;;;5041704;28;20808;-73
2023/10/21 08:13:28;;;;;;;1.10;0.50;;;14.50;99.90;;;;;;5044324;28;20524;-72
2023/10/21 08:15:57;;;;;;;0.85;0.50;;;14.60;99.90;;;;;;5044544;28;20425;-72
2023/10/21 08:18:24;;;;;;;1.55;0.50;;;14.70;99.90;;;;;;5050338;28;20435;-72
2023/10/21 08:20:51;;;;;;;1.13;0.40;;;14.80;99.90;;;;;;5044537;28;20511;-72
2023/10/21 08:23:18;;;;;;;1.10;0.40;;;14.90;99.90;;;;;;5044378;28;20435;-72
2023/10/21 08:25:44;;;;;;;0.88;0.40;;;15.00;99.90;;;;;;5046549;28;20537;-72
2023/10/21 08:28:11;;;;;;;0.90;0.40;;;15.00;99.90;;;;;;5046808;28;20493;-72
2023/10/21 08:30:38;;;;;;;0.80;0.35;;;15.10;99.10;;;;;;5048178;28;20411;-72
2023/10/21 08:33:06;;;;;;;1.35;0.40;;;15.10;99.90;;;;;;5046320;28;20745;-72
2023/10/21 08:35:33;;;;;;;1.70;0.50;;;15.20;99.30;;;;;;5041764;28;20910;-72
2023/10/21 08:38:00;;;;;;;0.90;0.40;;;15.40;98.00;;;;;;5044233;28;20529;-72
2023/10/21 08:40:27;;;;;;;1.70;0.60;;;15.50;98.90;;;;;;5045609;28;20431;-72
2023/10/21 08:42:54;;;;;;;1.90;0.50;;;15.50;98.40;;;;;;5044513;28;20529;-72
2023/10/21 08:45:21;;;;;;;1.40;0.50;;;15.50;99.00;;;;;;5043859;28;20425;-72
2023/10/21 08:47:49;;;;;;;1.50;0.60;;;15.40;97.40;;;;;;5042619;28;20437;-72
2023/10/21 08:50:19;;;;;;;0.80;0.40;;;15.30;97.70;;;;;;5049585;28;20416;-72
2023/10/21 08:52:51;;;;;;;1.10;0.40;;;15.30;98.60;;;;;;5052374;28;20444;-72
2023/10/21 08:55:18;;;;;;;1.10;0.40;;;15.20;98.00;;;;;;5037497;28;20437;-72
2023/10/21 08:57:45;;;;;;;1.20;0.50;;;15.20;97.00;;;;;;5044200;28;20421;-72
2023/10/21 09:00:13;;;;;;;1.30;0.63;;;15.10;97.20;;;;;;5051194;28;20443;-72
2023/10/21 09:02:40;;;;;;;2.20;0.60;;;15.20;96.90;;;;;;5044046;28;20433;-72
2023/10/21 09:05:11;;;;;;;1.10;0.50;;;15.30;94.70;;;;;;5055129;28;20420;-72
2023/10/21 09:07:46;;;;;;;0.90;0.40;;;15.50;96.30;;;;;;5043399;28;20431;-72
2023/10/21 09:10:13;;;;;;;1.90;0.57;;;15.80;95.40;;;;;;5039421;28;20753;-72
2023/10/21 09:12:40;;;;;;;2.40;0.70;;;16.00;93.90;;;;;;5045377;28;20435;-68
2023/10/21 09:15:09;;;;;;;1.60;0.60;;;16.20;94.60;;;;;;5043370;28;20448;-72
2023/10/21 09:17:38;;;;;;;1.60;0.75;;;16.40;92.60;;;;;;5041216;28;20645;-73
2023/10/21 09:20:09;;;;;;;1.60;0.70;;;16.50;91.10;;;;;;5041779;28;20500;-71
2023/10/21 09:22:37;;;;;;;1.55;0.70;;;16.60;90.70;;;;;;5039194;28;20479;-71
2023/10/21 09:25:15;;;;;;;2.20;0.60;;;16.70;90.50;;;;;;5045255;28;20468;-71
2023/10/21 09:27:42;;;;;;;1.55;0.57;;;16.80;89.60;;;;;;5043484;28;20433;-70
2023/10/21 09:30:15;;;;;;;3.00;0.60;;;16.80;90.10;;;;;;5046241;28;20421;-69
2023/10/21 09:32:42;;;;;;;1.20;0.47;;;16.90;87.80;;;;;;5046779;28;20463;-71
2023/10/21 09:35:21;;;;;;;2.27;0.60;;;17.00;86.40;;;;;;5045386;28;20424;-71
2023/10/21 09:37:48;;;;;;;1.90;0.77;;;17.00;87.30;;;;;;5041085;28;20441;-72
2023/10/21 09:40:16;;;;;;;2.00;0.70;;;17.10;85.00;;;;;;5042273;28;20498;-68
2023/10/21 09:42:44;;;;;;;2.35;0.70;;;17.10;84.50;;;;;;5045239;28;20417;-66
2023/10/21 09:45:12;;;;;;;2.50;0.98;;;17.00;87.10;;;;;;5046211;28;20526;-69
2023/10/21 09:47:41;;;;;;;2.10;0.60;;;16.90;85.90;;;;;;5048070;28;20457;-75
2023/10/21 09:50:12;;;;;;;1.70;0.70;;;16.80;86.60;;;;;;5047783;28;20508;-76
2023/10/21 09:52:51;;;;;;;3.17;0.80;;;16.70;88.00;;;;;;5041985;28;20442;-75
2023/10/21 09:55:24;;;;;;;1.73;0.60;;;16.40;86.20;;;;;;5048875;28;20921;-76
2023/10/21 09:57:53;;;;;;;2.13;0.80;;;16.30;88.20;;;;;;5045888;28;20464;-76
2023/10/21 10:00:20;;;;;;;3.63;0.70;;;16.20;90.00;;;;;;5046542;28;20497;-76
2023/10/21 10:02:48;;;;;;;2.20;0.70;;;16.10;87.40;;;;;;5040839;28;20430;-75
2023/10/21 10:05:17;;;;;;;2.38;0.70;;;15.90;90.10;;;;;;5053360;28;20424;-76
2023/10/21 10:07:45;;;;;;;1.38;0.73;;;15.90;91.00;;;;;;5050048;28;20867;-77
2023/10/21 10:10:13;;;;;;;1.65;0.70;;;16.10;90.30;;;;;;5044032;28;20433;-76
2023/10/21 10:12:46;;;;;;;1.60;0.60;;;16.30;90.20;;;;;;5044798;28;20436;-76
2023/10/21 10:15:28;;;;;;;1.50;0.50;;;16.50;89.60;;;;;;5042366;28;20760;-77
2023/10/21 10:17:55;;;;;;;2.30;0.68;;;16.60;87.20;;;;;;5044030;28;20755;-77
2023/10/21 10:20:24;;;;;;;1.10;0.50;;;16.70;88.20;;;;;;5050683;28;20417;-78
2023/10/21 10:23:00;;;;;;;1.40;0.50;;;16.60;86.90;;;;;;5039353;28;20433;-75
2023/10/21 10:25:27;;;;;;;1.48;0.70;;;16.60;88.70;;;;;;5047714;28;20504;-77
2023/10/21 10:27:59;;;;;;;1.33;0.43;;;16.70;88.90;;;;;;5048696;28;20400;-77
2023/10/21 10:30:31;;;;;;;1.80;0.50;;;16.90;88.30;;;;;;5046676;28;20764;-78
2023/10/21 10:33:06;;;;;;;1.30;0.47;;;16.80;87.20;;;;;;5047916;28;20605;-77
2023/10/21 10:35:34;;;;;;;2.10;0.60;;;16.50;86.60;;;;;;5049336;28;20506;-77
2023/10/21 10:38:01;;;;;;;2.35;0.52;;;16.30;88.30;;;;;;5042660;28;20772;-75
2023/10/21 10:40:34;;;;;;;1.90;0.50;;;16.10;87.70;;;;;;5045100;28;20440;-75
2023/10/21 10:43:03;;;;;;;1.33;0.50;;;16.10;87.90;;;;;;5041577;28;20456;-76
2023/10/21 10:45:32;;;;;;;1.30;0.50;;;16.10;89.40;;;;;;5043155;28;20519;-76
2023/10/21 10:48:03;;;;;;;1.50;0.50;;;16.10;88.60;;;;;;5041879;28;22246;-77
2023/10/21 10:50:31;;;;;;;3.00;0.60;;;16.30;90.20;;;;;;5045251;28;20987;-78
2023/10/21 10:52:59;;;;;;;1.77;0.40;;;16.50;88.00;;;;;;5048866;28;20421;-77
2023/10/21 10:55:26;;;;;;;1.80;0.55;;;16.50;88.40;;;;;;5045420;28;20505;-76
2023/10/21 10:57:53;;;;;;;0.93;0.40;;;16.60;87.40;;;;;;5044498;28;20429;-76
2023/10/21 11:00:21;;;;;;;1.30;0.40;;;16.70;87.10;;;;;;5044574;28;20520;-76
2023/10/21 11:02:49;;;;;;;0.88;0.40;;;16.90;87.80;;;;;;5043514;28;20483;-76
2023/10/21 11:05:17;;;;;;;1.00;0.40;;;17.00;86.40;;;;;;5051492;28;20554;-77
2023/10/21 11:07:44;;;;;;;1.90;0.55;;;17.10;86.90;;;;;;5046881;28;20429;-75
2023/10/21 11:10:14;;;;;;;1.60;0.80;;;17.10;85.00;;;;;;5051110;28;20536;-75
2023/10/21 11:12:41;;;;;;;2.20;0.50;;;17.10;86.00;;;;;;5042323;28;20436;-76
2023/10/21 11:15:12;;;;;;;2.20;0.63;;;17.20;85.20;;;;;;5053590;28;20802;-75
2023/10/21 11:17:40;;;;;;;1.30;0.50;;;17.20;83.50;;;;;;5041806;28;20431;-75
2023/10/21 11:20:08;;;;;;;0.93;0.50;;;17.20;84.70;;;;;;5044514;28;20433;-75
2023/10/21 11:22:35;;;;;;;1.70;0.70;;;17.30;84.60;;;;;;5042941;28;20482;-76
2023/10/21 11:25:04;;;;;;;2.20;0.65;;;17.50;84.10;;;;;;5039336;28;20436;-77
2023/10/21 11:27:30;;;;;;;1.90;0.60;;;17.70;79.60;;;;;;5043987;28;22413;-77
2023/10/21 11:29:58;;;;;;;1.90;0.90;;;17.90;80.30;;;;;;5047137;28;20451;-77
2023/10/21 11:32:27;;;;;;;2.00;0.80;;;18.00;75.60;;;;;;5040264;28;20528;-76
2023/10/21 11:34:55;;;;;;;1.90;0.90;;;18.00;77.20;;;;;;5039239;28;21968;-77
2023/10/21 11:37:22;;;;;;;1.83;0.60;;;18.10;72.10;;;;;;5045599;28;20470;-75
2023/10/21 11:39:49;;;;;;;3.15;0.70;;;18.10;70.90;;;;;;5048611;28;20748;-75
2023/10/21 11:42:17;;;;;;;2.67;0.80;;;18.20;69.50;;;;;;5046317;28;20486;-75
2023/10/21 11:44:55;;;;;;;3.47;0.90;;;18.40;68.10;;;;;;5050373;28;20512;-74
2023/10/21 11:47:24;;;;;;;4.75;0.80;;;18.40;68.80;;;;;;5046728;28;20509;-76
2023/10/21 11:49:52;;;;;;;1.58;0.60;;;18.50;66.20;;;;;;5043444;28;20429;-75
2023/10/21 11:52:21;;;;;;;2.80;1.05;;;18.30;67.00;;;;;;5044807;28;20429;-76
2023/10/21 11:54:48;;;;;;;3.47;0.90;;;18.40;67.70;;;;;;5046539;28;20491;-73
2023/10/21 11:57:41;;;;;;;3.45;1.08;;;18.60;66.20;;;;;;5047261;28;20850;-70
2023/10/21 12:11:42;;;;;;;1.85;0.90;;;18.80;64.40;;;;;;5034830;28;20425;-69
2023/10/21 12:17:29;;;;;;;2.47;1.00;;;19.10;58.80;;;;;;5048206;28;20425;-69
2023/10/21 12:20:29;;;;;;;2.80;0.90;;;19.20;57.40;;;;;;5046653;28;20515;-70
2023/10/21 12:23:30;;;;;;;2.95;1.00;;;19.20;58.90;;;;;;5035052;28;20429;-69
2023/10/21 12:31:50;;;;;;;3.40;1.30;;;18.40;59.20;;;;;;5047747;28;20496;-69
2023/10/21 12:34:36;;;;;;;3.45;1.20;;;18.50;58.60;;;;;;5043183;28;20420;-69
2023/10/21 12:39:48;;;;;;;2.83;0.90;;;19.10;56.50;;;;;;5041308;28;20844;-69
2023/10/21 12:42:25;;;;;;;3.65;0.90;;;19.10;56.00;;;;;;5042630;28;20419;-69
2023/10/21 12:44:55;;;;;;;3.60;1.10;;;18.90;55.40;;;;;;5039674;28;20498;-69
2023/10/21 12:47:22;;;;;;;3.42;1.10;;;18.60;56.60;;;;;;5041449;28;20429;-69
2023/10/21 12:49:50;;;;;;;3.05;1.00;;;18.30;57.00;;;;;;5041698;28;20413;-69
2023/10/21 12:52:17;;;;;;;2.58;0.93;;;18.00;59.30;;;;;;5041858;28;20447;-69
2023/10/21 12:54:44;;;;;;;3.00;1.10;;;17.90;59.10;;;;;;5040530;28;20872;-69
2023/10/21 12:57:11;;;;;;;5.97;1.10;;;18.00;59.10;;;;;;5040945;28;20754;-73
2023/10/21 12:59:39;;;;;;;2.53;1.02;;;18.10;60.00;;;;;;5040533;28;20436;-72
2023/10/21 13:02:08;;;;;;;2.20;1.00;;;18.00;59.00;;;;;;5035584;28;20517;-71
2023/10/21 13:04:37;;;;;;;2.25;0.75;;;18.00;59.20;;;;;;5042549;28;20754;-68
2023/10/21 13:07:04;;;;;;;2.60;1.00;;;17.90;57.60;;;;;;5044026;28;20436;-70
2023/10/21 13:09:31;;;;;;;3.50;1.10;;;17.70;58.90;;;;;;5043988;28;20503;-71
2023/10/21 13:12:00;;;;;;;3.80;1.10;;;17.70;59.10;;;;;;5046844;28;20425;-70
2023/10/21 13:14:29;;;;;;;4.47;1.20;;;17.60;59.70;;;;;;5045661;28;20844;-69
2023/10/21 13:16:57;;;;;;;2.25;1.30;;;17.70;60.40;;;;;;5043265;28;20425;-69